createdAt,value
2022-11-29T00:01:36.319Z,31.50
2022-11-29T00:04:04.343Z,29.35
2022-11-29T00:06:33.661Z,29.10
2022-11-29T00:09:08.871Z,29.92
2022-11-29T00:11:56.283Z,31.67
2022-11-29T00:14:25.174Z,28.77
2022-11-29T00:16:54.831Z,30.08
2022-11-29T00:19:22.257Z,27.15
2022-11-29T00:21:49.627Z,31.83
2022-11-29T00:24:17.264Z,31.30
2022-11-29T00:26:44.600Z,30.85
2022-11-29T00:29:13.059Z,30.48
2022-11-29T00:31:41.103Z,29.50
2022-11-29T00:34:09.842Z,29.25
2022-11-29T00:36:37.360Z,29.47
2022-11-29T00:39:06.708Z,31.40
2022-11-29T00:41:34.054Z,30.97
2022-11-29T00:44:02.000Z,29.30
2022-11-29T00:46:29.346Z,29.83
2022-11-29T00:48:56.677Z,30.38
2022-11-29T00:51:24.016Z,33.08
2022-11-29T00:53:51.576Z,28.67
2022-11-29T00:56:19.421Z,29.63
2022-11-29T00:58:48.508Z,29.08
2022-11-29T01:01:16.065Z,29.20
2022-11-29T01:03:44.343Z,29.33
2022-11-29T01:06:15.845Z,29.80
2022-11-29T01:08:43.760Z,31.10
2022-11-29T01:11:18.519Z,27.90
2022-11-29T01:13:46.279Z,31.25
2022-11-29T01:16:14.870Z,30.48
2022-11-29T01:18:42.931Z,30.17
2022-11-29T01:21:13.852Z,30.75
2022-11-29T01:23:42.179Z,30.58
2022-11-29T01:26:12.951Z,31.17
2022-11-29T01:28:41.033Z,28.33
2022-11-29T01:31:24.212Z,31.67
2022-11-29T01:33:56.262Z,29.00
2022-11-29T01:36:24.388Z,31.00
2022-11-29T01:38:52.080Z,29.90
2022-11-29T01:41:24.545Z,29.87
2022-11-29T01:44:27.012Z,31.10
2022-11-29T01:46:56.093Z,29.57
2022-11-29T01:49:38.454Z,31.10
2022-11-29T01:52:22.498Z,29.60
2022-11-29T01:54:52.790Z,29.60
2022-11-29T01:57:20.686Z,27.30
2022-11-29T01:59:52.349Z,25.80
2022-11-29T02:25:28.514Z,31.92
2022-11-29T02:28:30.353Z,27.02
2022-11-29T02:31:26.998Z,27.23
2022-11-29T02:34:13.025Z,28.77
2022-11-29T02:37:20.697Z,27.88
2022-11-29T02:40:06.695Z,27.33
2022-11-29T02:42:56.984Z,31.13
2022-11-29T02:45:43.274Z,26.20
2022-11-29T02:48:41.651Z,28.70
2022-11-29T02:51:27.433Z,30.35
2022-11-29T02:54:06.700Z,26.83
2022-11-29T02:56:53.400Z,28.50
2022-11-29T02:59:39.236Z,28.65
2022-11-29T03:02:21.671Z,25.88
2022-11-29T03:04:58.112Z,26.83
2022-11-29T03:07:41.123Z,25.63
2022-11-29T16:41:39.056Z,27.92
2022-11-29T16:47:45.222Z,33.07
2022-11-29T16:50:40.603Z,32.65
2022-11-29T16:56:53.345Z,27.50
2022-11-29T17:00:12.857Z,28.33
2022-11-29T17:03:12.924Z,29.60
2022-11-29T17:06:25.952Z,35.67
2022-11-29T17:09:24.954Z,28.92
2022-11-29T17:18:55.590Z,33.63
2022-11-29T17:36:16.503Z,33.70
2022-11-29T17:38:44.883Z,37.30
2022-11-29T17:41:14.757Z,41.75
2022-11-29T17:43:42.505Z,37.47
2022-11-29T17:46:31.894Z,31.60
2022-11-29T17:49:01.432Z,34.05
2022-11-29T17:51:51.158Z,32.75
2022-11-29T18:19:11.309Z,30.20
2022-11-29T18:21:39.334Z,31.27
2022-11-29T18:24:07.359Z,29.20
2022-11-29T18:26:36.309Z,30.05
2022-11-29T18:29:05.319Z,31.27
2022-11-29T18:31:38.210Z,30.98
2022-11-29T18:34:09.399Z,32.17
2022-11-29T18:36:39.446Z,35.33
2022-11-29T18:39:09.339Z,33.05
2022-11-29T18:41:37.745Z,35.03
2022-11-29T18:44:07.660Z,34.58
2022-11-29T18:46:37.552Z,38.08
2022-11-29T18:49:07.385Z,36.42
2022-11-29T18:51:35.964Z,34.05
2022-11-29T18:54:04.015Z,37.33
2022-11-29T18:56:34.425Z,37.38
2022-11-29T18:59:05.353Z,41.95
2022-11-29T19:01:34.609Z,42.67
2022-11-29T19:04:02.134Z,43.08
2022-11-29T19:06:39.007Z,37.10
2022-11-29T19:09:12.910Z,33.47
2022-11-29T19:11:40.651Z,39.05
2022-11-29T19:14:11.567Z,33.47
2022-11-29T19:16:42.379Z,36.45
2022-11-29T19:19:09.984Z,35.47
2022-11-29T19:21:39.584Z,34.10
2022-11-29T19:24:13.524Z,32.85
2022-11-29T19:26:44.334Z,35.13
2022-11-29T19:29:13.867Z,35.28
2022-11-29T19:31:42.483Z,38.47
2022-11-29T19:34:10.700Z,40.05
2022-11-29T19:36:43.076Z,39.45
2022-11-29T19:39:15.972Z,47.58
2022-11-29T19:41:46.042Z,37.83
2022-11-29T19:44:13.687Z,33.60
2022-11-29T19:46:48.268Z,32.85
2022-11-29T19:49:16.015Z,34.45
2022-11-29T19:51:46.106Z,40.70
2022-11-29T19:54:14.870Z,43.47
2022-11-29T19:56:42.324Z,39.47
2022-11-29T19:59:10.624Z,38.05
2022-11-29T20:01:42.302Z,32.83
2022-11-29T20:04:12.393Z,35.78
2022-11-29T20:06:40.308Z,34.78
2022-11-29T20:09:13.547Z,36.28
2022-11-29T20:11:52.241Z,33.95
2022-11-29T20:14:19.866Z,34.17
2022-11-29T20:16:47.598Z,30.95
2022-11-29T20:19:17.208Z,35.47
2022-11-29T20:21:49.302Z,32.75
2022-11-29T20:24:19.517Z,28.60
2022-11-29T20:26:49.384Z,30.83
2022-11-29T20:29:17.894Z,29.73
2022-11-29T20:31:49.931Z,30.95
2022-11-29T20:34:19.759Z,29.83
2022-11-29T20:36:49.998Z,31.95
2022-11-29T20:39:30.807Z,28.23
2022-11-29T20:42:27.009Z,28.15
2022-11-29T20:44:54.829Z,27.65
2022-11-29T20:47:28.258Z,28.48
2022-11-29T20:49:56.274Z,27.75
2022-11-29T20:52:45.458Z,27.55
2022-11-29T20:55:13.089Z,25.40
2022-11-29T20:57:41.482Z,27.88
2022-11-29T21:00:11.620Z,28.15
2022-11-29T21:05:38.391Z,29.05
2022-11-29T21:08:05.952Z,28.58
2022-11-29T21:10:34.589Z,26.92
2022-11-29T21:13:27.509Z,27.52
2022-11-29T21:16:27.308Z,27.55
2022-11-29T21:18:58.435Z,26.85
2022-11-29T21:21:55.767Z,28.08
2022-11-29T21:24:46.420Z,28.45
2022-11-29T21:27:18.976Z,26.92
2022-11-29T21:29:46.971Z,25.27
2022-11-29T21:32:22.130Z,25.10
2022-11-29T21:34:50.084Z,29.45
2022-11-29T21:37:21.650Z,25.75
2022-11-29T21:39:52.129Z,25.23
2022-11-29T21:42:20.309Z,24.75
2022-11-29T21:44:47.951Z,25.65
2022-11-29T21:47:15.572Z,26.70
2022-11-29T21:49:44.907Z,27.00
2022-11-29T21:52:17.713Z,28.30
2022-11-29T21:54:48.471Z,27.15
2022-11-29T21:57:16.105Z,28.75
2022-11-29T21:59:44.135Z,25.80
2022-11-29T22:02:11.558Z,25.85
2022-11-29T22:04:39.063Z,26.98
2022-11-29T22:07:06.242Z,26.35
2022-11-29T22:09:33.623Z,27.58
2022-11-29T22:12:06.617Z,29.75
2022-11-29T22:14:47.088Z,27.92
2022-11-29T22:17:14.534Z,27.70
2022-11-29T22:19:42.500Z,25.40
2022-11-29T22:22:10.889Z,23.55
2022-11-29T22:24:38.390Z,25.88
2022-11-29T22:27:05.704Z,24.85
2022-11-29T22:29:32.940Z,25.90
2022-11-29T22:32:01.158Z,24.70
2022-11-29T22:34:28.591Z,26.67
2022-11-29T22:36:56.021Z,25.60
2022-11-29T22:39:24.054Z,28.25
2022-11-29T22:41:54.570Z,28.88
2022-11-29T22:44:23.937Z,23.17
2022-11-29T22:46:51.549Z,28.80
2022-11-29T22:49:19.096Z,27.48
2022-11-29T22:51:46.711Z,26.80
2022-11-29T22:54:17.376Z,24.45
2022-11-29T22:56:45.543Z,23.00
2022-11-29T22:59:13.300Z,24.98
2022-11-29T23:01:41.380Z,25.23
2022-11-29T23:04:11.135Z,26.27
2022-11-29T23:06:45.961Z,23.23
2022-11-29T23:09:16.783Z,24.90
2022-11-29T23:11:45.707Z,26.92
2022-11-29T23:14:13.192Z,26.75
2022-11-29T23:16:40.577Z,23.67
2022-11-29T23:19:07.986Z,25.45
2022-11-29T23:21:37.757Z,21.42
2022-11-29T23:24:05.633Z,26.05
2022-11-29T23:26:42.489Z,22.75
2022-11-29T23:29:12.695Z,23.00
2022-11-29T23:31:40.760Z,24.00
2022-11-29T23:34:08.259Z,24.90
2022-11-29T23:36:35.879Z,22.95
2022-11-29T23:39:06.428Z,23.42
2022-11-29T23:41:35.714Z,23.67
2022-11-29T23:44:06.444Z,25.15
2022-11-29T23:46:35.074Z,26.92
2022-11-29T23:49:02.704Z,24.48
2022-11-29T23:51:30.010Z,23.10
2022-11-29T23:53:57.272Z,26.33
2022-11-29T23:56:24.504Z,29.27
2022-11-29T23:58:51.793Z,28.90
